createdAt,value
2019-04-16T00:01:18.132Z,80.10
2019-04-16T00:03:53.671Z,79.20
2019-04-16T00:06:27.797Z,79.30
2019-04-16T00:09:01.185Z,79.40
2019-04-16T00:11:38.619Z,79.60
2019-04-16T00:14:22.853Z,79.50
2019-04-16T00:16:51.545Z,79.60
2019-04-16T00:19:20.213Z,79.60
2019-04-16T00:22:11.290Z,79.60
2019-04-16T00:24:40.624Z,79.90
2019-04-16T00:27:09.576Z,79.90
2019-04-16T00:29:39.748Z,80.00
2019-04-16T00:32:27.047Z,80.30
2019-04-16T00:34:56.065Z,80.70
2019-04-16T00:37:24.805Z,80.70
2019-04-16T00:39:56.106Z,80.60
2019-04-16T00:42:24.475Z,81.00
2019-04-16T00:44:53.123Z,80.90
2019-04-16T00:47:22.301Z,80.90
2019-04-16T00:49:51.040Z,80.80
2019-04-16T00:52:20.170Z,80.90
2019-04-16T00:54:48.808Z,81.20
2019-04-16T00:57:18.696Z,81.20
2019-04-16T00:59:47.690Z,81.20
2019-04-16T01:02:17.234Z,81.30
2019-04-16T01:04:46.304Z,81.50
2019-04-16T01:07:14.958Z,81.60
2019-04-16T01:09:43.652Z,81.80
2019-04-16T01:12:12.392Z,82.40
2019-04-16T01:14:41.061Z,81.70
2019-04-16T01:17:09.720Z,81.80
2019-04-16T01:19:41.046Z,81.80
2019-04-16T01:22:09.009Z,81.90
2019-04-16T01:24:37.653Z,82.10
2019-04-16T01:27:06.405Z,82.80
2019-04-16T01:29:35.064Z,82.10
2019-04-16T01:32:11.946Z,82.10
2019-04-16T01:35:00.524Z,82.20
2019-04-16T01:37:41.553Z,82.40
2019-04-16T01:40:11.396Z,82.30
2019-04-16T01:42:40.970Z,81.80
2019-04-16T01:45:10.412Z,81.70
2019-04-16T01:47:39.356Z,81.40
2019-04-16T01:50:12.943Z,81.70
2019-04-16T01:52:39.517Z,81.60
2019-04-16T01:55:08.281Z,81.50
2019-04-16T01:57:36.955Z,81.20
2019-04-16T02:00:08.543Z,81.20
2019-04-16T02:02:37.645Z,80.80
2019-04-16T02:05:07.615Z,80.90
2019-04-16T02:07:36.254Z,80.40
2019-04-16T02:10:07.336Z,80.50
2019-04-16T02:12:35.840Z,80.40
2019-04-16T02:15:05.052Z,80.60
2019-04-16T02:17:33.988Z,80.30
2019-04-16T02:20:06.173Z,80.30
2019-04-16T02:22:33.246Z,80.20
2019-04-16T02:25:02.055Z,79.80
2019-04-16T02:27:30.763Z,79.70
2019-04-16T02:30:02.917Z,79.80
2019-04-16T02:32:30.038Z,80.30
2019-04-16T02:34:59.245Z,79.80
2019-04-16T02:37:28.286Z,79.90
2019-04-16T02:39:56.951Z,79.70
2019-04-16T02:42:30.727Z,80.00
2019-04-16T02:44:56.693Z,80.00
2019-04-16T02:47:25.456Z,80.20
2019-04-16T02:49:56.810Z,79.50
2019-04-16T02:52:50.541Z,79.70
2019-04-16T02:55:33.751Z,80.00
2019-04-16T02:58:09.634Z,80.00
2019-04-16T03:00:57.126Z,80.10
2019-04-16T03:03:31.964Z,80.00
2019-04-16T03:06:01.626Z,80.10
2019-04-16T03:08:33.395Z,80.20
2019-04-16T03:11:02.025Z,80.20
2019-04-16T03:13:30.787Z,80.20
2019-04-16T03:16:19.019Z,80.60
2019-04-16T03:19:06.785Z,80.50
2019-04-16T03:21:35.565Z,80.70
2019-04-16T03:24:08.001Z,80.40
2019-04-16T03:26:34.718Z,80.30
2019-04-16T03:29:03.764Z,80.60
2019-04-16T03:31:32.505Z,80.40
2019-04-16T03:34:01.227Z,80.70
2019-04-16T03:36:30.302Z,80.90
2019-04-16T03:38:59.004Z,80.60
2019-04-16T03:41:27.948Z,80.80
2019-04-16T03:43:56.876Z,81.00
2019-04-16T03:46:25.525Z,81.10
2019-04-16T03:48:56.113Z,81.10
2019-04-16T03:51:24.789Z,81.00
2019-04-16T03:53:53.653Z,81.40
2019-04-16T03:56:22.304Z,81.00
2019-04-16T03:58:51.329Z,81.30
2019-04-16T04:01:20.003Z,81.40
2019-04-16T04:03:48.960Z,81.60
2019-04-16T04:06:17.750Z,81.50
2019-04-16T04:08:48.309Z,81.50
2019-04-16T04:11:17.065Z,81.80
2019-04-16T04:13:49.761Z,81.80
2019-04-16T04:16:17.335Z,81.70
2019-04-16T04:18:46.053Z,81.70
2019-04-16T04:21:14.742Z,81.90
2019-04-16T04:23:43.627Z,81.50
2019-04-16T04:26:12.286Z,81.40
2019-04-16T04:28:41.045Z,81.20
2019-04-16T04:31:09.929Z,80.60
2019-04-16T04:33:41.883Z,79.50
2019-04-16T04:36:10.697Z,78.10
2019-04-16T04:38:39.674Z,77.90
2019-04-16T04:41:08.735Z,77.80
2019-04-16T04:43:37.675Z,77.50
2019-04-16T04:46:06.452Z,76.40
2019-04-16T04:48:35.330Z,75.40
2019-04-16T04:51:08.256Z,73.60
2019-04-16T04:53:35.273Z,71.90
2019-04-16T04:56:04.489Z,71.00
2019-04-16T04:58:34.784Z,70.60
2019-04-16T05:01:03.633Z,70.40
2019-04-16T05:03:49.384Z,69.50
2019-04-16T05:06:21.402Z,68.40
2019-04-16T05:08:50.372Z,67.40
2019-04-16T05:11:19.137Z,65.80
2019-04-16T05:13:48.723Z,64.20
2019-04-16T05:16:17.437Z,64.70
2019-04-16T05:18:46.201Z,64.30
2019-04-16T05:21:17.830Z,62.80
2019-04-16T05:23:45.777Z,61.70
2019-04-16T05:26:14.535Z,60.70
2019-04-16T05:28:45.380Z,59.10
2019-04-16T05:31:13.561Z,59.30
2019-04-16T05:33:42.518Z,60.90
2019-04-16T05:36:14.572Z,60.00
2019-04-16T05:38:42.076Z,59.40
2019-04-16T05:41:13.842Z,59.80
2019-04-16T05:43:42.845Z,58.60
2019-04-16T05:46:11.589Z,58.40
2019-04-16T05:48:40.659Z,58.10
2019-04-16T05:51:09.321Z,58.20
2019-04-16T05:53:40.140Z,56.90
2019-04-16T05:56:16.410Z,57.40
2019-04-16T05:58:45.299Z,57.40
2019-04-16T06:01:26.093Z,56.40
2019-04-16T06:03:54.990Z,56.20
2019-04-16T06:06:23.882Z,56.40
2019-04-16T06:12:08.809Z,52.80
2019-04-16T06:15:15.344Z,50.40
2019-04-16T06:18:22.359Z,51.10
2019-04-16T06:24:58.382Z,49.80
2019-04-16T06:28:05.459Z,48.70
2019-04-16T06:31:12.955Z,49.10
2019-04-16T06:34:20.055Z,50.20
2019-04-16T06:37:27.933Z,49.20
2019-04-16T06:40:16.019Z,50.10
2019-04-16T06:43:26.501Z,49.30
2019-04-16T06:46:31.882Z,48.10
2019-04-16T06:52:41.394Z,44.90
2019-04-16T06:55:48.457Z,44.80
2019-04-16T06:58:50.828Z,43.90
2019-04-16T07:01:41.608Z,41.90
2019-04-16T07:04:47.513Z,39.30
2019-04-16T07:11:19.693Z,40.80
2019-04-16T07:17:47.807Z,39.40
2019-04-16T07:23:46.144Z,40.00
2019-04-16T07:26:24.967Z,38.40
2019-04-16T07:29:07.460Z,34.50
2019-04-16T07:35:27.087Z,35.60
2019-04-16T07:38:12.593Z,35.80
2019-04-16T07:44:10.876Z,36.40
2019-04-16T07:47:04.969Z,35.50
2019-04-16T07:53:20.848Z,35.00
2019-04-16T07:56:05.958Z,33.70
2019-04-16T07:58:46.960Z,33.10
2019-04-16T08:01:27.887Z,33.10
2019-04-16T08:04:08.485Z,33.20
2019-04-16T08:06:49.569Z,32.70
2019-04-16T08:09:33.584Z,34.80
2019-04-16T08:12:01.966Z,34.70
2019-04-16T08:14:30.652Z,35.30
2019-04-16T08:16:59.597Z,35.20
2019-04-16T08:19:36.885Z,33.80
2019-04-16T08:21:59.226Z,33.40
2019-04-16T08:24:32.209Z,33.50
2019-04-16T08:27:01.105Z,32.90
2019-04-16T08:29:29.842Z,32.30
2019-04-16T08:31:58.742Z,33.10
2019-04-16T08:34:27.419Z,32.10
2019-04-16T08:37:15.364Z,31.70
2019-04-16T08:40:03.283Z,30.30
2019-04-16T08:42:43.952Z,30.20
2019-04-16T08:45:23.059Z,30.00
2019-04-16T08:48:16.826Z,30.60
2019-04-16T08:51:04.086Z,29.80
2019-04-16T08:56:44.167Z,28.60
2019-04-16T08:59:32.158Z,27.70
2019-04-16T09:02:20.101Z,27.80
2019-04-16T09:13:36.744Z,25.90
2019-04-16T09:16:17.617Z,26.90
2019-04-16T09:19:01.801Z,26.00
2019-04-16T09:21:44.166Z,25.70
2019-04-16T09:24:47.015Z,26.00
2019-04-16T09:27:34.491Z,25.60
2019-04-16T09:30:32.233Z,25.60
2019-04-16T09:33:24.734Z,26.20
2019-04-16T09:36:27.567Z,26.90
2019-04-16T09:42:16.235Z,26.60
2019-04-16T09:44:57.101Z,27.30
2019-04-16T09:47:38.116Z,28.00
2019-04-16T09:50:19.607Z,28.60
2019-04-16T09:56:28.430Z,29.40
2019-04-16T09:58:57.080Z,27.80
2019-04-16T10:01:30.450Z,25.50
2019-04-16T10:03:59.346Z,25.50
2019-04-16T10:06:28.252Z,26.40
2019-04-16T10:08:57.240Z,28.10
2019-04-16T10:11:25.953Z,28.80
2019-04-16T10:13:54.626Z,28.90
2019-04-16T10:16:25.061Z,28.50
2019-04-16T10:18:53.794Z,29.00
2019-04-16T10:21:22.519Z,30.20
2019-04-16T10:24:09.049Z,32.20
2019-04-16T10:26:37.982Z,33.80
2019-04-16T10:29:11.431Z,33.10
2019-04-16T10:31:40.737Z,32.60
2019-04-16T10:34:10.857Z,33.80
2019-04-16T10:36:39.734Z,34.20
2019-04-16T10:39:15.806Z,34.30
2019-04-16T10:42:05.194Z,34.50
2019-04-16T10:45:12.388Z,33.00
2019-04-16T10:48:12.516Z,32.70
2019-04-16T10:51:06.455Z,32.10
2019-04-16T10:53:53.052Z,32.70
2019-04-16T10:56:47.723Z,33.20
2019-04-16T10:59:35.716Z,34.00
2019-04-16T11:02:38.732Z,33.70
2019-04-16T11:05:20.228Z,34.00
2019-04-16T11:07:49.923Z,32.90
2019-04-16T11:10:19.007Z,33.10
2019-04-16T11:12:47.788Z,32.10
2019-04-16T11:15:20.580Z,31.50
2019-04-16T11:17:49.242Z,32.20
2019-04-16T11:20:18.770Z,31.50
2019-04-16T11:22:47.911Z,31.30
2019-04-16T11:25:16.957Z,31.80
2019-04-16T11:27:45.636Z,31.80
2019-04-16T11:30:36.381Z,31.20
2019-04-16T11:33:05.738Z,31.80
2019-04-16T11:35:34.681Z,32.10
2019-04-16T11:38:03.477Z,31.90
2019-04-16T11:40:32.165Z,32.10
2019-04-16T11:43:00.861Z,31.50
2019-04-16T11:45:29.843Z,30.80
2019-04-16T11:47:58.572Z,31.50
2019-04-16T11:50:27.253Z,32.40
2019-04-16T11:52:58.406Z,32.70
2019-04-16T11:55:27.371Z,32.20
2019-04-16T11:57:56.369Z,32.20
2019-04-16T12:03:28.396Z,31.80
2019-04-16T12:06:35.504Z,31.30
2019-04-16T12:16:27.270Z,31.70
2019-04-16T12:22:35.260Z,31.60
2019-04-16T12:25:29.215Z,32.40
2019-04-16T12:28:12.564Z,32.00
2019-04-16T12:31:00.046Z,32.00
2019-04-16T12:33:38.500Z,31.80
2019-04-16T12:36:24.937Z,32.20
2019-04-16T12:39:19.545Z,32.30
2019-04-16T12:42:15.836Z,31.20
2019-04-16T12:44:51.586Z,31.80
2019-04-16T12:47:39.703Z,31.20
2019-04-16T12:50:20.557Z,30.60
2019-04-16T12:53:07.260Z,30.80
2019-04-16T12:55:47.539Z,31.00
2019-04-16T12:58:28.474Z,31.10
2019-04-16T13:01:13.516Z,31.50
2019-04-16T13:03:53.494Z,31.50
2019-04-16T13:06:39.999Z,31.40
2019-04-16T13:09:17.565Z,31.90
2019-04-16T13:11:55.951Z,31.50
2019-04-16T13:14:42.204Z,30.60
2019-04-16T13:17:24.939Z,30.80
2019-04-16T13:20:03.346Z,31.80
2019-04-16T13:22:37.303Z,31.00
2019-04-16T13:25:13.501Z,30.90
2019-04-16T13:27:42.373Z,30.40
2019-04-16T13:30:11.417Z,30.00
2019-04-16T13:32:40.101Z,30.90
2019-04-16T13:35:10.078Z,30.70
2019-04-16T13:37:38.757Z,30.30
2019-04-16T13:40:14.067Z,31.20
2019-04-16T13:42:42.958Z,30.90
2019-04-16T13:45:34.645Z,30.90
2019-04-16T13:48:15.704Z,30.00
2019-04-16T13:50:47.308Z,29.70
2019-04-16T13:53:34.029Z,29.60
2019-04-16T13:56:24.956Z,29.10
2019-04-16T13:59:14.472Z,30.00
2019-04-16T14:01:51.273Z,30.60
2019-04-16T14:04:19.924Z,30.60
2019-04-16T14:06:48.741Z,30.50
2019-04-16T14:09:17.516Z,30.40
2019-04-16T14:11:51.027Z,30.10
2019-04-16T14:14:18.155Z,28.70
2019-04-16T14:16:47.485Z,28.90
2019-04-16T14:19:17.718Z,29.00
2019-04-16T14:21:46.615Z,28.40
2019-04-16T14:24:15.363Z,28.60
2019-04-16T14:30:32.118Z,29.50
2019-04-16T14:33:40.482Z,29.40
2019-04-16T14:39:41.282Z,29.30
2019-04-16T14:42:23.150Z,29.60
2019-04-16T14:44:58.870Z,28.90
2019-04-16T14:47:29.808Z,28.90
2019-04-16T14:49:58.700Z,29.10
2019-04-16T14:52:27.550Z,29.30
2019-04-16T14:55:04.505Z,29.40
2019-04-16T14:57:33.356Z,29.50
2019-04-16T15:00:22.153Z,29.60
2019-04-16T15:03:19.720Z,29.10
2019-04-16T15:05:55.398Z,28.70
2019-04-16T15:08:49.399Z,28.80
2019-04-16T15:11:35.738Z,29.00
2019-04-16T15:14:25.988Z,29.00
2019-04-16T15:16:59.767Z,29.10
2019-04-16T15:19:38.306Z,29.50
2019-04-16T15:22:26.033Z,29.80
2019-04-16T15:25:00.072Z,29.90
2019-04-16T15:27:49.601Z,30.10
2019-04-16T15:30:29.357Z,30.30
2019-04-16T15:33:18.429Z,30.00
2019-04-16T15:35:52.269Z,30.80
2019-04-16T15:38:43.434Z,29.80
2019-04-16T15:41:33.029Z,29.70
2019-04-16T15:44:23.560Z,29.70
2019-04-16T15:47:01.081Z,29.60
2019-04-16T15:49:38.307Z,29.50
2019-04-16T15:52:26.903Z,29.70
2019-04-16T15:55:00.745Z,29.80
2019-04-16T15:57:46.418Z,29.70
2019-04-16T16:00:47.711Z,30.30
2019-04-16T16:03:48.140Z,30.20
2019-04-16T16:06:20.627Z,30.30
2019-04-16T16:09:06.898Z,30.70
2019-04-16T16:11:39.683Z,31.00
2019-04-16T16:14:12.214Z,30.50
2019-04-16T16:16:42.433Z,30.60
2019-04-16T16:19:12.211Z,30.80
2019-04-16T16:21:41.238Z,30.90
2019-04-16T16:24:10.400Z,31.20
2019-04-16T16:30:23.406Z,31.10
2019-04-16T16:32:52.558Z,31.30
2019-04-16T16:35:21.256Z,30.90
2019-04-16T16:37:56.478Z,31.10
2019-04-16T16:40:25.891Z,31.60
2019-04-16T16:42:55.107Z,31.90
2019-04-16T16:45:32.709Z,31.80
2019-04-16T16:48:01.876Z,32.10
2019-04-16T16:50:30.729Z,30.90
2019-04-16T16:53:18.668Z,30.40
2019-04-16T16:55:49.997Z,30.50
2019-04-16T16:58:40.365Z,30.70
2019-04-16T17:01:27.213Z,30.90
2019-04-16T17:04:00.015Z,30.30
2019-04-16T17:06:48.674Z,30.10
2019-04-16T17:09:29.753Z,30.40
2019-04-16T17:11:57.652Z,30.40
2019-04-16T17:14:26.373Z,30.90
2019-04-16T17:16:55.118Z,31.10
2019-04-16T17:19:24.086Z,30.70
2019-04-16T17:21:53.045Z,30.70
2019-04-16T17:24:21.822Z,30.80
2019-04-16T17:26:50.859Z,30.90
2019-04-16T17:29:19.658Z,31.20
2019-04-16T17:31:48.647Z,31.30
2019-04-16T17:34:17.381Z,31.60
2019-04-16T17:36:46.163Z,31.90
2019-04-16T17:39:32.528Z,32.10
2019-04-16T17:42:06.928Z,32.50
2019-04-16T17:44:49.332Z,33.00
2019-04-16T17:47:32.363Z,33.20
2019-04-16T17:50:22.178Z,33.70
2019-04-16T17:53:09.107Z,34.00
2019-04-16T17:55:50.006Z,34.10
2019-04-16T17:58:38.105Z,33.90
2019-04-16T18:01:36.059Z,34.10
2019-04-16T18:04:12.747Z,34.50
2019-04-16T18:07:06.996Z,34.60
2019-04-16T18:09:40.578Z,34.80
2019-04-16T18:12:25.303Z,34.80
2019-04-16T18:14:58.700Z,35.00
2019-04-16T18:17:55.650Z,35.60
2019-04-16T18:20:33.384Z,36.30
2019-04-16T18:23:33.016Z,36.80
2019-04-16T18:26:26.766Z,37.30
2019-04-16T18:29:09.715Z,37.60
2019-04-16T18:31:46.337Z,37.90
2019-04-16T18:34:32.457Z,38.10
2019-04-16T18:37:35.228Z,38.10
2019-04-16T18:40:27.761Z,38.20
2019-04-16T18:43:14.460Z,38.30
2019-04-16T18:45:59.168Z,38.60
2019-04-16T18:48:30.197Z,38.70
2019-04-16T18:51:00.548Z,38.80
2019-04-16T18:53:30.041Z,38.80
2019-04-16T18:55:58.828Z,39.30
2019-04-16T18:58:27.610Z,38.70
2019-04-16T19:01:00.383Z,38.90
2019-04-16T19:03:29.110Z,39.00
2019-04-16T19:05:58.104Z,39.00
2019-04-16T19:08:40.975Z,39.30
2019-04-16T19:10:57.513Z,39.30
2019-04-16T19:13:26.159Z,39.40
2019-04-16T19:15:55.015Z,39.50
2019-04-16T19:18:43.171Z,39.70
2019-04-16T19:21:31.148Z,39.60
2019-04-16T19:24:19.427Z,39.70
2019-04-16T19:26:48.885Z,39.80
2019-04-16T19:29:36.900Z,39.90
2019-04-16T19:35:22.283Z,39.90
2019-04-16T19:38:08.156Z,40.10
2019-04-16T19:40:56.094Z,40.10
2019-04-16T19:43:44.382Z,40.20
2019-04-16T19:46:32.408Z,40.20
2019-04-16T19:51:54.616Z,40.30
2019-04-16T19:55:06.309Z,40.40
2019-04-16T20:00:29.645Z,40.60
2019-04-16T20:03:10.590Z,40.60
2019-04-16T20:05:51.819Z,40.70
2019-04-16T20:08:36.712Z,40.60
2019-04-16T20:11:20.387Z,40.70
2019-04-16T20:13:46.016Z,40.80
2019-04-16T20:16:14.687Z,40.80
2019-04-16T20:18:50.786Z,40.80
2019-04-16T20:21:13.858Z,41.00
2019-04-16T20:23:42.782Z,41.00
2019-04-16T20:26:11.559Z,41.10
2019-04-16T20:28:40.518Z,41.10
2019-04-16T20:31:09.761Z,41.10
2019-04-16T20:33:38.586Z,41.20
2019-04-16T20:36:07.254Z,41.30
2019-04-16T20:38:35.914Z,41.30
2019-04-16T20:41:04.613Z,41.40
2019-04-16T20:43:33.540Z,41.50
2019-04-16T20:46:02.559Z,41.60
2019-04-16T20:48:31.290Z,41.50
2019-04-16T20:51:00.294Z,41.60
2019-04-16T20:53:29.095Z,41.70
2019-04-16T20:55:58.705Z,41.80
2019-04-16T20:58:30.629Z,42.10
2019-04-16T21:00:59.113Z,42.60
2019-04-16T21:03:30.834Z,42.30
2019-04-16T21:05:59.832Z,42.40
2019-04-16T21:08:29.251Z,42.50
2019-04-16T21:10:59.485Z,42.50
2019-04-16T21:13:28.695Z,42.60
2019-04-16T21:16:01.784Z,42.80
2019-04-16T21:18:28.109Z,42.70
2019-04-16T21:20:57.028Z,42.90
2019-04-16T21:23:27.496Z,43.10
2019-04-16T21:25:56.427Z,43.20
2019-04-16T21:28:30.228Z,43.30
2019-04-16T21:31:03.370Z,43.60
2019-04-16T21:33:37.264Z,43.70
2019-04-16T21:36:06.728Z,43.80
2019-04-16T21:38:52.980Z,43.80
2019-04-16T21:41:22.065Z,44.10
2019-04-16T21:43:50.832Z,44.10
2019-04-16T21:46:20.426Z,44.20
2019-04-16T21:48:49.901Z,44.50
2019-04-16T21:51:19.504Z,44.40
2019-04-16T21:53:49.020Z,44.50
2019-04-16T21:56:17.942Z,44.50
2019-04-16T21:58:50.115Z,44.60
2019-04-16T22:01:32.760Z,44.60
2019-04-16T22:04:13.262Z,44.60
2019-04-16T22:06:39.930Z,44.80
2019-04-16T22:09:09.021Z,44.90
2019-04-16T22:11:40.775Z,45.00
2019-04-16T22:14:08.452Z,45.00
2019-04-16T22:16:37.114Z,45.10
2019-04-16T22:19:07.045Z,45.30
2019-04-16T22:21:35.761Z,45.50
2019-04-16T22:24:04.532Z,45.60
2019-04-16T22:26:35.169Z,45.70
2019-04-16T22:29:04.281Z,45.80
2019-04-16T22:31:32.986Z,45.90
2019-04-16T22:34:01.629Z,46.00
2019-04-16T22:36:30.660Z,46.20
2019-04-16T22:39:05.440Z,46.20
2019-04-16T22:41:59.341Z,46.20
2019-04-16T22:44:45.540Z,46.30
2019-04-16T22:47:17.416Z,46.30
2019-04-16T22:49:46.146Z,46.40
2019-04-16T22:52:14.844Z,46.40
2019-04-16T22:54:43.777Z,46.50
2019-04-16T22:57:14.154Z,46.60
2019-04-16T22:59:42.826Z,46.70
2019-04-16T23:02:23.336Z,46.90
2019-04-16T23:04:54.810Z,47.00
2019-04-16T23:07:22.672Z,47.00
2019-04-16T23:09:51.629Z,47.10
2019-04-16T23:12:20.394Z,47.20
2019-04-16T23:14:49.049Z,47.30
2019-04-16T23:17:18.946Z,47.50
2019-04-16T23:19:47.597Z,47.40
2019-04-16T23:22:16.450Z,47.40
2019-04-16T23:24:45.153Z,47.60
2019-04-16T23:27:14.056Z,47.60
2019-04-16T23:29:47.302Z,47.60
2019-04-16T23:32:13.385Z,47.70
2019-04-16T23:34:42.093Z,47.80
2019-04-16T23:37:10.941Z,47.80
2019-04-16T23:39:39.908Z,47.90
2019-04-16T23:42:08.583Z,48.10
2019-04-16T23:45:00.378Z,48.10
2019-04-16T23:47:42.015Z,48.20
2019-04-16T23:50:44.117Z,48.30
2019-04-16T23:53:20.248Z,48.40
2019-04-16T23:55:59.702Z,48.50
2019-04-16T23:58:36.654Z,48.50
